sensor_id;sensor_type;location;lat;lon;timestamp;P1;durP1;ratioP1;P2;durP2;ratioP2
16634;SDS011;8431;52.458;9.998;2024-02-28T00:02:21;9.52;;;8.63;;
16634;SDS011;8431;52.458;9.998;2024-02-28T00:04:47;11.48;;;9.05;;
16634;SDS011;8431;52.458;9.998;2024-02-28T00:07:14;10.27;;;8.02;;
16634;SDS011;8431;52.458;9.998;2024-02-28T00:09:44;10.32;;;8.82;;
16634;SDS011;8431;52.458;9.998;2024-02-28T00:12:10;11.40;;;9.05;;
16634;SDS011;8431;52.458;9.998;2024-02-28T00:14:37;10.77;;;9.68;;
16634;SDS011;8431;52.458;9.998;2024-02-28T00:17:05;9.60;;;8.60;;
16634;SDS011;8431;52.458;9.998;2024-02-28T00:19:32;9.30;;;8.35;;
16634;SDS011;8431;52.458;9.998;2024-02-28T00:21:59;9.57;;;8.57;;
16634;SDS011;8431;52.458;9.998;2024-02-28T00:24:26;9.43;;;8.55;;
16634;SDS011;8431;52.458;9.998;2024-02-28T00:26:54;10.65;;;9.57;;
16634;SDS011;8431;52.458;9.998;2024-02-28T00:29:21;11.63;;;10.43;;
16634;SDS011;8431;52.458;9.998;2024-02-28T00:31:48;10.30;;;9.30;;
16634;SDS011;8431;52.458;9.998;2024-02-28T00:34:14;11.82;;;10.63;;
16634;SDS011;8431;52.458;9.998;2024-02-28T00:36:41;12.90;;;9.60;;
16634;SDS011;8431;52.458;9.998;2024-02-28T00:39:08;10.35;;;9.35;;
16634;SDS011;8431;52.458;9.998;2024-02-28T00:41:35;10.45;;;9.23;;
16634;SDS011;8431;52.458;9.998;2024-02-28T00:44:04;10.90;;;9.82;;
16634;SDS011;8431;52.458;9.998;2024-02-28T00:46:31;10.07;;;9.07;;
16634;SDS011;8431;52.458;9.998;2024-02-28T00:48:57;11.02;;;9.45;;
16634;SDS011;8431;52.458;9.998;2024-02-28T00:51:24;10.13;;;8.80;;
16634;SDS011;8431;52.458;9.998;2024-02-28T00:53:51;10.60;;;9.60;;
16634;SDS011;8431;52.458;9.998;2024-02-28T00:56:18;10.43;;;9.43;;
16634;SDS011;8431;52.458;9.998;2024-02-28T00:58:44;9.98;;;9.05;;
16634;SDS011;8431;52.458;9.998;2024-02-28T01:01:13;11.60;;;10.40;;
16634;SDS011;8431;52.458;9.998;2024-02-28T01:03:39;11.90;;;10.80;;
16634;SDS011;8431;52.458;9.998;2024-02-28T01:06:06;10.60;;;9.70;;
16634;SDS011;8431;52.458;9.998;2024-02-28T01:08:33;10.25;;;9.45;;
16634;SDS011;8431;52.458;9.998;2024-02-28T01:11:00;11.27;;;10.20;;
16634;SDS011;8431;52.458;9.998;2024-02-28T01:13:26;11.90;;;10.80;;
16634;SDS011;8431;52.458;9.998;2024-02-28T01:15:53;13.10;;;11.50;;
16634;SDS011;8431;52.458;9.998;2024-02-28T01:18:21;11.27;;;10.27;;
16634;SDS011;8431;52.458;9.998;2024-02-28T01:20:48;11.30;;;10.30;;
16634;SDS011;8431;52.458;9.998;2024-02-28T01:23:16;12.68;;;11.48;;
16634;SDS011;8431;52.458;9.998;2024-02-28T01:25:43;13.52;;;10.90;;
16634;SDS011;8431;52.458;9.998;2024-02-28T01:28:10;12.20;;;11.10;;
16634;SDS011;8431;52.458;9.998;2024-02-28T01:30:36;12.10;;;11.00;;
16634;SDS011;8431;52.458;9.998;2024-02-28T01:33:03;12.45;;;11.15;;
16634;SDS011;8431;52.458;9.998;2024-02-28T01:35:32;12.13;;;11.05;;
16634;SDS011;8431;52.458;9.998;2024-02-28T01:37:58;11.63;;;10.55;;
16634;SDS011;8431;52.458;9.998;2024-02-28T01:40:25;14.07;;;11.02;;
16634;SDS011;8431;52.458;9.998;2024-02-28T01:42:52;12.43;;;11.18;;
16634;SDS011;8431;52.458;9.998;2024-02-28T01:45:19;14.13;;;12.20;;
16634;SDS011;8431;52.458;9.998;2024-02-28T01:47:50;12.85;;;11.18;;
16634;SDS011;8431;52.458;9.998;2024-02-28T01:50:16;11.65;;;10.55;;
16634;SDS011;8431;52.458;9.998;2024-02-28T01:52:45;11.52;;;10.45;;
16634;SDS011;8431;52.458;9.998;2024-02-28T01:55:12;11.57;;;10.48;;
16634;SDS011;8431;52.458;9.998;2024-02-28T01:57:40;11.45;;;10.40;;
16634;SDS011;8431;52.458;9.998;2024-02-28T02:00:07;14.40;;;11.15;;
16634;SDS011;8431;52.458;9.998;2024-02-28T02:02:35;12.25;;;11.05;;
16634;SDS011;8431;52.458;9.998;2024-02-28T02:05:02;11.65;;;10.45;;
16634;SDS011;8431;52.458;9.998;2024-02-28T02:07:29;13.10;;;11.82;;
16634;SDS011;8431;52.458;9.998;2024-02-28T02:09:58;12.15;;;10.95;;
16634;SDS011;8431;52.458;9.998;2024-02-28T02:12:25;13.55;;;12.23;;
16634;SDS011;8431;52.458;9.998;2024-02-28T02:14:55;13.13;;;11.82;;
16634;SDS011;8431;52.458;9.998;2024-02-28T02:17:22;13.18;;;11.85;;
16634;SDS011;8431;52.458;9.998;2024-02-28T02:19:49;13.25;;;11.95;;
16634;SDS011;8431;52.458;9.998;2024-02-28T02:22:15;13.45;;;11.18;;
16634;SDS011;8431;52.458;9.998;2024-02-28T02:24:46;12.80;;;11.50;;
16634;SDS011;8431;52.458;9.998;2024-02-28T02:27:13;11.18;;;10.07;;
16634;SDS011;8431;52.458;9.998;2024-02-28T02:29:39;11.98;;;10.73;;
16634;SDS011;8431;52.458;9.998;2024-02-28T02:32:06;13.27;;;11.65;;
16634;SDS011;8431;52.458;9.998;2024-02-28T02:34:33;13.73;;;11.23;;
16634;SDS011;8431;52.458;9.998;2024-02-28T02:37:00;12.73;;;11.43;;
16634;SDS011;8431;52.458;9.998;2024-02-28T02:39:27;12.10;;;10.82;;
16634;SDS011;8431;52.458;9.998;2024-02-28T02:41:55;11.63;;;10.43;;
16634;SDS011;8431;52.458;9.998;2024-02-28T02:44:21;13.07;;;11.68;;
16634;SDS011;8431;52.458;9.998;2024-02-28T02:46:48;11.10;;;10.00;;
16634;SDS011;8431;52.458;9.998;2024-02-28T02:49:15;14.00;;;11.65;;
16634;SDS011;8431;52.458;9.998;2024-02-28T02:51:43;15.38;;;11.68;;
16634;SDS011;8431;52.458;9.998;2024-02-28T02:54:10;12.95;;;11.60;;
16634;SDS011;8431;52.458;9.998;2024-02-28T02:56:37;13.27;;;11.88;;
16634;SDS011;8431;52.458;9.998;2024-02-28T02:59:08;15.43;;;11.65;;
16634;SDS011;8431;52.458;9.998;2024-02-28T03:01:35;12.68;;;11.27;;
16634;SDS011;8431;52.458;9.998;2024-02-28T03:04:02;13.75;;;11.38;;
16634;SDS011;8431;52.458;9.998;2024-02-28T03:06:29;12.63;;;11.43;;
16634;SDS011;8431;52.458;9.998;2024-02-28T03:08:57;11.80;;;10.70;;
16634;SDS011;8431;52.458;9.998;2024-02-28T03:11:24;12.57;;;11.40;;
16634;SDS011;8431;52.458;9.998;2024-02-28T03:13:50;12.55;;;11.27;;
16634;SDS011;8431;52.458;9.998;2024-02-28T03:16:18;14.18;;;10.93;;
16634;SDS011;8431;52.458;9.998;2024-02-28T03:18:45;10.73;;;9.65;;
16634;SDS011;8431;52.458;9.998;2024-02-28T03:21:12;11.15;;;9.98;;
16634;SDS011;8431;52.458;9.998;2024-02-28T03:23:39;12.40;;;10.43;;
16634;SDS011;8431;52.458;9.998;2024-02-28T03:26:05;12.10;;;9.80;;
16634;SDS011;8431;52.458;9.998;2024-02-28T03:28:32;12.80;;;11.02;;
16634;SDS011;8431;52.458;9.998;2024-02-28T03:30:59;11.80;;;10.60;;
16634;SDS011;8431;52.458;9.998;2024-02-28T03:33:27;13.02;;;11.45;;
16634;SDS011;8431;52.458;9.998;2024-02-28T03:35:56;13.43;;;11.25;;
16634;SDS011;8431;52.458;9.998;2024-02-28T03:38:23;13.93;;;11.00;;
16634;SDS011;8431;52.458;9.998;2024-02-28T03:40:50;16.95;;;11.45;;
16634;SDS011;8431;52.458;9.998;2024-02-28T03:43:17;14.02;;;11.00;;
16634;SDS011;8431;52.458;9.998;2024-02-28T03:45:44;14.48;;;12.20;;
16634;SDS011;8431;52.458;9.998;2024-02-28T03:48:11;16.88;;;12.77;;
16634;SDS011;8431;52.458;9.998;2024-02-28T03:50:39;15.50;;;12.75;;
16634;SDS011;8431;52.458;9.998;2024-02-28T03:53:06;14.75;;;12.07;;
16634;SDS011;8431;52.458;9.998;2024-02-28T03:55:32;13.60;;;11.38;;
16634;SDS011;8431;52.458;9.998;2024-02-28T03:57:58;12.27;;;10.50;;
16634;SDS011;8431;52.458;9.998;2024-02-28T04:00:25;16.85;;;11.95;;
16634;SDS011;8431;52.458;9.998;2024-02-28T04:02:52;14.20;;;12.27;;
16634;SDS011;8431;52.458;9.998;2024-02-28T04:05:19;13.40;;;12.07;;
16634;SDS011;8431;52.458;9.998;2024-02-28T04:07:47;15.52;;;11.50;;
16634;SDS011;8431;52.458;9.998;2024-02-28T04:10:14;14.85;;;11.43;;
16634;SDS011;8431;52.458;9.998;2024-02-28T04:12:42;16.75;;;11.18;;
16634;SDS011;8431;52.458;9.998;2024-02-28T04:15:10;16.70;;;11.93;;
16634;SDS011;8431;52.458;9.998;2024-02-28T04:17:37;15.60;;;11.25;;
16634;SDS011;8431;52.458;9.998;2024-02-28T04:20:07;15.43;;;12.68;;
16634;SDS011;8431;52.458;9.998;2024-02-28T04:22:35;15.10;;;11.88;;
16634;SDS011;8431;52.458;9.998;2024-02-28T04:25:03;13.85;;;11.93;;
16634;SDS011;8431;52.458;9.998;2024-02-28T04:27:30;13.95;;;11.13;;
16634;SDS011;8431;52.458;9.998;2024-02-28T04:29:57;14.95;;;12.00;;
16634;SDS011;8431;52.458;9.998;2024-02-28T04:32:25;14.25;;;11.48;;
16634;SDS011;8431;52.458;9.998;2024-02-28T04:34:52;15.73;;;13.10;;
16634;SDS011;8431;52.458;9.998;2024-02-28T04:37:19;13.68;;;11.85;;
16634;SDS011;8431;52.458;9.998;2024-02-28T04:39:46;13.85;;;11.77;;
16634;SDS011;8431;52.458;9.998;2024-02-28T04:42:14;13.90;;;11.43;;
16634;SDS011;8431;52.458;9.998;2024-02-28T04:44:41;14.52;;;12.88;;
16634;SDS011;8431;52.458;9.998;2024-02-28T04:47:08;13.43;;;12.13;;
16634;SDS011;8431;52.458;9.998;2024-02-28T04:49:36;12.25;;;10.30;;
16634;SDS011;8431;52.458;9.998;2024-02-28T04:52:03;15.77;;;11.02;;
16634;SDS011;8431;52.458;9.998;2024-02-28T04:54:31;12.82;;;10.82;;
16634;SDS011;8431;52.458;9.998;2024-02-28T04:57:00;13.00;;;11.13;;
16634;SDS011;8431;52.458;9.998;2024-02-28T04:59:29;13.75;;;11.40;;
16634;SDS011;8431;52.458;9.998;2024-02-28T05:01:57;13.95;;;10.65;;
16634;SDS011;8431;52.458;9.998;2024-02-28T05:04:23;13.05;;;10.82;;
16634;SDS011;8431;52.458;9.998;2024-02-28T05:06:50;13.52;;;11.63;;
16634;SDS011;8431;52.458;9.998;2024-02-28T05:09:17;15.35;;;10.65;;
16634;SDS011;8431;52.458;9.998;2024-02-28T05:11:46;14.52;;;10.90;;
16634;SDS011;8431;52.458;9.998;2024-02-28T05:14:13;14.32;;;10.80;;
16634;SDS011;8431;52.458;9.998;2024-02-28T05:16:41;14.32;;;10.77;;
16634;SDS011;8431;52.458;9.998;2024-02-28T05:19:08;13.02;;;10.57;;
16634;SDS011;8431;52.458;9.998;2024-02-28T05:21:39;14.80;;;10.90;;
16634;SDS011;8431;52.458;9.998;2024-02-28T05:24:06;16.20;;;11.35;;
16634;SDS011;8431;52.458;9.998;2024-02-28T05:26:33;13.80;;;11.38;;
16634;SDS011;8431;52.458;9.998;2024-02-28T05:29:00;15.00;;;11.43;;
16634;SDS011;8431;52.458;9.998;2024-02-28T05:31:28;16.27;;;12.05;;
16634;SDS011;8431;52.458;9.998;2024-02-28T05:33:58;15.82;;;12.18;;
16634;SDS011;8431;52.458;9.998;2024-02-28T05:36:27;15.18;;;11.40;;
16634;SDS011;8431;52.458;9.998;2024-02-28T05:38:55;15.18;;;12.02;;
16634;SDS011;8431;52.458;9.998;2024-02-28T05:41:22;16.30;;;11.73;;
16634;SDS011;8431;52.458;9.998;2024-02-28T05:43:50;14.75;;;12.32;;
16634;SDS011;8431;52.458;9.998;2024-02-28T05:46:18;14.35;;;11.25;;
16634;SDS011;8431;52.458;9.998;2024-02-28T05:48:47;15.13;;;10.93;;
16634;SDS011;8431;52.458;9.998;2024-02-28T05:51:15;14.98;;;11.80;;
16634;SDS011;8431;52.458;9.998;2024-02-28T05:53:42;17.30;;;13.10;;
16634;SDS011;8431;52.458;9.998;2024-02-28T05:56:09;15.25;;;11.90;;
16634;SDS011;8431;52.458;9.998;2024-02-28T05:58:39;15.50;;;12.30;;
16634;SDS011;8431;52.458;9.998;2024-02-28T06:01:06;16.42;;;13.23;;
16634;SDS011;8431;52.458;9.998;2024-02-28T06:03:33;18.48;;;13.40;;
16634;SDS011;8431;52.458;9.998;2024-02-28T06:06:00;18.13;;;13.18;;
16634;SDS011;8431;52.458;9.998;2024-02-28T06:08:31;15.40;;;12.32;;
16634;SDS011;8431;52.458;9.998;2024-02-28T06:10:58;18.67;;;13.25;;
16634;SDS011;8431;52.458;9.998;2024-02-28T06:13:26;20.48;;;13.45;;
16634;SDS011;8431;52.458;9.998;2024-02-28T06:15:53;15.90;;;13.35;;
16634;SDS011;8431;52.458;9.998;2024-02-28T06:18:20;20.45;;;15.13;;
16634;SDS011;8431;52.458;9.998;2024-02-28T06:20:48;17.38;;;14.52;;
16634;SDS011;8431;52.458;9.998;2024-02-28T06:23:15;20.58;;;14.88;;
16634;SDS011;8431;52.458;9.998;2024-02-28T06:25:43;20.67;;;15.90;;
16634;SDS011;8431;52.458;9.998;2024-02-28T06:28:10;21.45;;;15.05;;
16634;SDS011;8431;52.458;9.998;2024-02-28T06:30:37;24.45;;;16.48;;
16634;SDS011;8431;52.458;9.998;2024-02-28T06:33:04;23.52;;;16.33;;
16634;SDS011;8431;52.458;9.998;2024-02-28T06:35:30;25.23;;;17.33;;
16634;SDS011;8431;52.458;9.998;2024-02-28T06:37:57;25.05;;;17.17;;
16634;SDS011;8431;52.458;9.998;2024-02-28T06:40:24;24.10;;;17.13;;
16634;SDS011;8431;52.458;9.998;2024-02-28T06:42:52;24.42;;;16.95;;
16634;SDS011;8431;52.458;9.998;2024-02-28T06:45:20;25.33;;;18.83;;
16634;SDS011;8431;52.458;9.998;2024-02-28T06:47:47;28.65;;;19.63;;
16634;SDS011;8431;52.458;9.998;2024-02-28T06:50:13;24.58;;;16.67;;
16634;SDS011;8431;52.458;9.998;2024-02-28T06:52:41;25.65;;;18.02;;
16634;SDS011;8431;52.458;9.998;2024-02-28T06:55:08;26.92;;;17.38;;
16634;SDS011;8431;52.458;9.998;2024-02-28T06:57:36;26.20;;;18.17;;
16634;SDS011;8431;52.458;9.998;2024-02-28T07:00:05;23.75;;;17.17;;
16634;SDS011;8431;52.458;9.998;2024-02-28T07:02:33;24.52;;;17.48;;
16634;SDS011;8431;52.458;9.998;2024-02-28T07:05:01;26.52;;;19.05;;
16634;SDS011;8431;52.458;9.998;2024-02-28T07:07:31;27.48;;;19.33;;
16634;SDS011;8431;52.458;9.998;2024-02-28T07:09:58;22.45;;;17.48;;
16634;SDS011;8431;52.458;9.998;2024-02-28T07:12:25;25.80;;;17.10;;
16634;SDS011;8431;52.458;9.998;2024-02-28T07:14:52;25.33;;;18.05;;
16634;SDS011;8431;52.458;9.998;2024-02-28T07:17:26;28.90;;;19.05;;
16634;SDS011;8431;52.458;9.998;2024-02-28T07:19:53;25.58;;;18.73;;
16634;SDS011;8431;52.458;9.998;2024-02-28T07:22:20;28.65;;;19.23;;
16634;SDS011;8431;52.458;9.998;2024-02-28T07:24:47;28.23;;;19.40;;
16634;SDS011;8431;52.458;9.998;2024-02-28T07:27:14;26.00;;;19.52;;
16634;SDS011;8431;52.458;9.998;2024-02-28T07:32:48;27.67;;;18.90;;
16634;SDS011;8431;52.458;9.998;2024-02-28T07:35:18;28.67;;;19.27;;
16634;SDS011;8431;52.458;9.998;2024-02-28T07:37:50;32.45;;;21.38;;
16634;SDS011;8431;52.458;9.998;2024-02-28T07:40:27;35.53;;;21.17;;
16634;SDS011;8431;52.458;9.998;2024-02-28T07:42:54;36.35;;;22.17;;
16634;SDS011;8431;52.458;9.998;2024-02-28T07:45:21;28.85;;;19.33;;
16634;SDS011;8431;52.458;9.998;2024-02-28T07:47:49;31.05;;;20.05;;
16634;SDS011;8431;52.458;9.998;2024-02-28T07:50:15;30.63;;;20.67;;
16634;SDS011;8431;52.458;9.998;2024-02-28T07:52:42;27.83;;;18.60;;
16634;SDS011;8431;52.458;9.998;2024-02-28T07:55:10;28.55;;;19.42;;
16634;SDS011;8431;52.458;9.998;2024-02-28T07:57:37;27.60;;;18.98;;
16634;SDS011;8431;52.458;9.998;2024-02-28T08:00:04;31.50;;;18.95;;
16634;SDS011;8431;52.458;9.998;2024-02-28T08:02:31;26.08;;;18.58;;
16634;SDS011;8431;52.458;9.998;2024-02-28T08:05:00;30.23;;;19.35;;
16634;SDS011;8431;52.458;9.998;2024-02-28T08:07:40;28.02;;;18.88;;
16634;SDS011;8431;52.458;9.998;2024-02-28T08:10:07;24.80;;;18.15;;
16634;SDS011;8431;52.458;9.998;2024-02-28T08:12:56;26.17;;;17.80;;
16634;SDS011;8431;52.458;9.998;2024-02-28T08:15:23;26.65;;;17.33;;
16634;SDS011;8431;52.458;9.998;2024-02-28T08:17:52;27.92;;;18.20;;
16634;SDS011;8431;52.458;9.998;2024-02-28T08:20:25;26.00;;;16.95;;
16634;SDS011;8431;52.458;9.998;2024-02-28T08:22:52;27.80;;;18.73;;
16634;SDS011;8431;52.458;9.998;2024-02-28T08:25:24;23.10;;;16.55;;
16634;SDS011;8431;52.458;9.998;2024-02-28T08:27:53;28.27;;;18.02;;
16634;SDS011;8431;52.458;9.998;2024-02-28T08:30:20;26.90;;;18.10;;
16634;SDS011;8431;52.458;9.998;2024-02-28T08:32:49;25.92;;;18.73;;
16634;SDS011;8431;52.458;9.998;2024-02-28T08:35:16;27.25;;;19.17;;
16634;SDS011;8431;52.458;9.998;2024-02-28T08:37:47;27.35;;;18.50;;
16634;SDS011;8431;52.458;9.998;2024-02-28T08:40:14;23.85;;;17.48;;
16634;SDS011;8431;52.458;9.998;2024-02-28T08:42:51;27.23;;;17.95;;
16634;SDS011;8431;52.458;9.998;2024-02-28T08:45:21;29.05;;;18.70;;
16634;SDS011;8431;52.458;9.998;2024-02-28T08:48:21;25.38;;;17.38;;
16634;SDS011;8431;52.458;9.998;2024-02-28T08:51:00;26.33;;;17.95;;
16634;SDS011;8431;52.458;9.998;2024-02-28T08:53:30;26.55;;;17.48;;
16634;SDS011;8431;52.458;9.998;2024-02-28T08:55:57;26.70;;;17.92;;
16634;SDS011;8431;52.458;9.998;2024-02-28T08:58:24;27.75;;;18.15;;
16634;SDS011;8431;52.458;9.998;2024-02-28T09:00:51;29.80;;;18.70;;
16634;SDS011;8431;52.458;9.998;2024-02-28T09:03:18;26.33;;;18.65;;
16634;SDS011;8431;52.458;9.998;2024-02-28T09:05:47;28.08;;;18.33;;
16634;SDS011;8431;52.458;9.998;2024-02-28T09:08:14;28.35;;;18.42;;
16634;SDS011;8431;52.458;9.998;2024-02-28T09:10:42;26.85;;;19.65;;
16634;SDS011;8431;52.458;9.998;2024-02-28T09:13:09;29.90;;;19.65;;
16634;SDS011;8431;52.458;9.998;2024-02-28T09:15:37;26.92;;;19.08;;
16634;SDS011;8431;52.458;9.998;2024-02-28T09:18:04;29.88;;;19.95;;
16634;SDS011;8431;52.458;9.998;2024-02-28T09:20:31;27.58;;;18.67;;
16634;SDS011;8431;52.458;9.998;2024-02-28T09:22:58;26.48;;;18.48;;
16634;SDS011;8431;52.458;9.998;2024-02-28T09:25:28;28.35;;;20.27;;
16634;SDS011;8431;52.458;9.998;2024-02-28T09:27:57;27.50;;;20.55;;
16634;SDS011;8431;52.458;9.998;2024-02-28T09:30:25;27.27;;;20.08;;
16634;SDS011;8431;52.458;9.998;2024-02-28T09:32:55;30.42;;;20.70;;
16634;SDS011;8431;52.458;9.998;2024-02-28T09:35:25;29.20;;;20.08;;
16634;SDS011;8431;52.458;9.998;2024-02-28T09:37:51;31.60;;;20.65;;
16634;SDS011;8431;52.458;9.998;2024-02-28T09:40:18;28.55;;;19.55;;
16634;SDS011;8431;52.458;9.998;2024-02-28T09:42:47;28.52;;;19.77;;
16634;SDS011;8431;52.458;9.998;2024-02-28T09:45:19;26.63;;;19.63;;
16634;SDS011;8431;52.458;9.998;2024-02-28T09:47:58;29.33;;;20.65;;
16634;SDS011;8431;52.458;9.998;2024-02-28T09:50:25;30.77;;;21.10;;
16634;SDS011;8431;52.458;9.998;2024-02-28T09:52:54;33.13;;;20.38;;
16634;SDS011;8431;52.458;9.998;2024-02-28T09:55:29;31.35;;;21.17;;
16634;SDS011;8431;52.458;9.998;2024-02-28T09:58:00;31.65;;;19.55;;
16634;SDS011;8431;52.458;9.998;2024-02-28T10:00:31;33.20;;;20.75;;
16634;SDS011;8431;52.458;9.998;2024-02-28T10:03:03;31.15;;;21.15;;
16634;SDS011;8431;52.458;9.998;2024-02-28T10:05:32;31.40;;;20.42;;
16634;SDS011;8431;52.458;9.998;2024-02-28T10:08:00;31.23;;;21.48;;
16634;SDS011;8431;52.458;9.998;2024-02-28T10:10:28;30.10;;;19.95;;
16634;SDS011;8431;52.458;9.998;2024-02-28T10:12:57;28.55;;;21.17;;
16634;SDS011;8431;52.458;9.998;2024-02-28T10:15:31;28.42;;;20.55;;
16634;SDS011;8431;52.458;9.998;2024-02-28T10:18:01;27.70;;;19.90;;
16634;SDS011;8431;52.458;9.998;2024-02-28T10:20:30;32.40;;;22.80;;
16634;SDS011;8431;52.458;9.998;2024-02-28T10:23:03;29.83;;;21.30;;
16634;SDS011;8431;52.458;9.998;2024-02-28T10:25:30;29.55;;;20.33;;
16634;SDS011;8431;52.458;9.998;2024-02-28T10:27:59;31.80;;;21.85;;
16634;SDS011;8431;52.458;9.998;2024-02-28T10:30:26;29.50;;;21.08;;
16634;SDS011;8431;52.458;9.998;2024-02-28T10:33:14;31.27;;;21.25;;
16634;SDS011;8431;52.458;9.998;2024-02-28T10:35:43;30.95;;;21.00;;
16634;SDS011;8431;52.458;9.998;2024-02-28T10:38:14;29.23;;;20.48;;
16634;SDS011;8431;52.458;9.998;2024-02-28T10:40:41;26.80;;;19.95;;
16634;SDS011;8431;52.458;9.998;2024-02-28T10:43:15;32.22;;;20.95;;
16634;SDS011;8431;52.458;9.998;2024-02-28T10:45:43;29.08;;;21.65;;
16634;SDS011;8431;52.458;9.998;2024-02-28T10:51:27;28.52;;;20.42;;
16634;SDS011;8431;52.458;9.998;2024-02-28T10:53:59;29.42;;;20.98;;
16634;SDS011;8431;52.458;9.998;2024-02-28T10:56:38;27.77;;;21.35;;
16634;SDS011;8431;52.458;9.998;2024-02-28T10:59:13;29.38;;;20.23;;
16634;SDS011;8431;52.458;9.998;2024-02-28T11:01:40;31.45;;;21.85;;
16634;SDS011;8431;52.458;9.998;2024-02-28T11:04:12;30.13;;;21.33;;
16634;SDS011;8431;52.458;9.998;2024-02-28T11:06:51;28.67;;;19.33;;
16634;SDS011;8431;52.458;9.998;2024-02-28T11:09:22;30.58;;;20.88;;
16634;SDS011;8431;52.458;9.998;2024-02-28T11:12:04;26.83;;;21.05;;
16634;SDS011;8431;52.458;9.998;2024-02-28T11:14:31;32.38;;;23.00;;
16634;SDS011;8431;52.458;9.998;2024-02-28T11:17:04;29.48;;;20.52;;
16634;SDS011;8431;52.458;9.998;2024-02-28T11:19:32;31.23;;;22.95;;
16634;SDS011;8431;52.458;9.998;2024-02-28T11:22:01;31.08;;;22.00;;
16634;SDS011;8431;52.458;9.998;2024-02-28T11:24:29;28.55;;;21.63;;
16634;SDS011;8431;52.458;9.998;2024-02-28T11:26:57;31.02;;;22.25;;
16634;SDS011;8431;52.458;9.998;2024-02-28T11:29:24;29.23;;;21.75;;
16634;SDS011;8431;52.458;9.998;2024-02-28T11:31:51;31.08;;;21.65;;
16634;SDS011;8431;52.458;9.998;2024-02-28T11:34:19;26.70;;;19.63;;
16634;SDS011;8431;52.458;9.998;2024-02-28T11:36:46;28.77;;;21.42;;
16634;SDS011;8431;52.458;9.998;2024-02-28T11:39:16;30.17;;;21.23;;
16634;SDS011;8431;52.458;9.998;2024-02-28T11:41:47;29.95;;;21.02;;
16634;SDS011;8431;52.458;9.998;2024-02-28T11:44:15;28.15;;;20.35;;
16634;SDS011;8431;52.458;9.998;2024-02-28T11:46:42;26.20;;;20.05;;
16634;SDS011;8431;52.458;9.998;2024-02-28T11:49:10;31.92;;;19.92;;
16634;SDS011;8431;52.458;9.998;2024-02-28T11:51:39;26.45;;;19.23;;
16634;SDS011;8431;52.458;9.998;2024-02-28T11:54:06;27.02;;;21.27;;
16634;SDS011;8431;52.458;9.998;2024-02-28T11:56:35;28.33;;;20.75;;
16634;SDS011;8431;52.458;9.998;2024-02-28T11:59:02;32.78;;;20.70;;
16634;SDS011;8431;52.458;9.998;2024-02-28T12:01:33;27.20;;;19.98;;
16634;SDS011;8431;52.458;9.998;2024-02-28T12:04:01;28.02;;;19.90;;
16634;SDS011;8431;52.458;9.998;2024-02-28T12:06:29;27.75;;;20.73;;
16634;SDS011;8431;52.458;9.998;2024-02-28T12:08:56;30.55;;;20.65;;
16634;SDS011;8431;52.458;9.998;2024-02-28T12:11:24;33.05;;;20.48;;
16634;SDS011;8431;52.458;9.998;2024-02-28T12:13:54;28.15;;;20.40;;
16634;SDS011;8431;52.458;9.998;2024-02-28T12:16:23;26.95;;;21.33;;
16634;SDS011;8431;52.458;9.998;2024-02-28T12:18:52;25.27;;;19.23;;
16634;SDS011;8431;52.458;9.998;2024-02-28T12:21:19;28.20;;;20.52;;
16634;SDS011;8431;52.458;9.998;2024-02-28T12:23:57;27.38;;;20.20;;
16634;SDS011;8431;52.458;9.998;2024-02-28T12:26:24;25.55;;;19.17;;
16634;SDS011;8431;52.458;9.998;2024-02-28T12:28:51;26.05;;;18.48;;
16634;SDS011;8431;52.458;9.998;2024-02-28T12:31:22;27.42;;;20.70;;
16634;SDS011;8431;52.458;9.998;2024-02-28T12:33:49;26.65;;;20.08;;
16634;SDS011;8431;52.458;9.998;2024-02-28T12:36:16;27.05;;;21.23;;
16634;SDS011;8431;52.458;9.998;2024-02-28T12:38:43;24.98;;;19.73;;
16634;SDS011;8431;52.458;9.998;2024-02-28T12:41:10;29.92;;;21.17;;
16634;SDS011;8431;52.458;9.998;2024-02-28T12:43:38;27.65;;;20.52;;
16634;SDS011;8431;52.458;9.998;2024-02-28T12:46:05;27.73;;;19.55;;
16634;SDS011;8431;52.458;9.998;2024-02-28T12:48:36;26.48;;;18.58;;
16634;SDS011;8431;52.458;9.998;2024-02-28T12:51:05;28.13;;;20.67;;
16634;SDS011;8431;52.458;9.998;2024-02-28T12:53:31;25.50;;;20.00;;
16634;SDS011;8431;52.458;9.998;2024-02-28T12:55:58;27.27;;;20.63;;
16634;SDS011;8431;52.458;9.998;2024-02-28T12:58:25;27.17;;;20.80;;
16634;SDS011;8431;52.458;9.998;2024-02-28T13:00:54;27.42;;;20.27;;
16634;SDS011;8431;52.458;9.998;2024-02-28T13:03:21;25.52;;;19.77;;
16634;SDS011;8431;52.458;9.998;2024-02-28T13:05:49;26.65;;;18.77;;
16634;SDS011;8431;52.458;9.998;2024-02-28T13:08:16;24.02;;;18.85;;
16634;SDS011;8431;52.458;9.998;2024-02-28T13:10:43;27.38;;;19.38;;
16634;SDS011;8431;52.458;9.998;2024-02-28T13:13:12;22.17;;;16.80;;
16634;SDS011;8431;52.458;9.998;2024-02-28T13:15:39;24.23;;;17.63;;
16634;SDS011;8431;52.458;9.998;2024-02-28T13:18:06;24.85;;;19.58;;
16634;SDS011;8431;52.458;9.998;2024-02-28T13:20:36;25.05;;;19.20;;
16634;SDS011;8431;52.458;9.998;2024-02-28T13:23:04;23.63;;;18.17;;
16634;SDS011;8431;52.458;9.998;2024-02-28T13:25:31;23.42;;;17.20;;
16634;SDS011;8431;52.458;9.998;2024-02-28T13:27:58;25.10;;;17.42;;
16634;SDS011;8431;52.458;9.998;2024-02-28T13:30:25;25.90;;;17.70;;
16634;SDS011;8431;52.458;9.998;2024-02-28T13:32:52;21.63;;;17.15;;
16634;SDS011;8431;52.458;9.998;2024-02-28T13:35:19;24.98;;;18.00;;
16634;SDS011;8431;52.458;9.998;2024-02-28T13:37:46;25.30;;;19.13;;
16634;SDS011;8431;52.458;9.998;2024-02-28T13:40:14;28.77;;;19.83;;
16634;SDS011;8431;52.458;9.998;2024-02-28T13:42:44;27.35;;;20.83;;
16634;SDS011;8431;52.458;9.998;2024-02-28T13:45:11;25.67;;;19.40;;
16634;SDS011;8431;52.458;9.998;2024-02-28T13:47:37;29.35;;;19.20;;
16634;SDS011;8431;52.458;9.998;2024-02-28T13:50:05;27.35;;;20.02;;
16634;SDS011;8431;52.458;9.998;2024-02-28T13:52:38;27.17;;;20.55;;
16634;SDS011;8431;52.458;9.998;2024-02-28T13:55:05;26.75;;;19.20;;
16634;SDS011;8431;52.458;9.998;2024-02-28T13:57:35;27.70;;;19.98;;
16634;SDS011;8431;52.458;9.998;2024-02-28T14:00:03;26.52;;;20.10;;
16634;SDS011;8431;52.458;9.998;2024-02-28T14:02:33;27.95;;;21.25;;
16634;SDS011;8431;52.458;9.998;2024-02-28T14:05:00;25.95;;;18.63;;
16634;SDS011;8431;52.458;9.998;2024-02-28T14:07:28;23.00;;;17.17;;
16634;SDS011;8431;52.458;9.998;2024-02-28T14:09:58;28.55;;;18.00;;
16634;SDS011;8431;52.458;9.998;2024-02-28T14:12:25;23.92;;;15.77;;
16634;SDS011;8431;52.458;9.998;2024-02-28T14:14:53;21.35;;;16.98;;
16634;SDS011;8431;52.458;9.998;2024-02-28T14:17:20;25.48;;;16.25;;
16634;SDS011;8431;52.458;9.998;2024-02-28T14:19:47;22.10;;;16.00;;
16634;SDS011;8431;52.458;9.998;2024-02-28T14:22:14;22.83;;;16.42;;
16634;SDS011;8431;52.458;9.998;2024-02-28T14:24:41;26.10;;;17.27;;
16634;SDS011;8431;52.458;9.998;2024-02-28T14:27:08;25.98;;;18.15;;
16634;SDS011;8431;52.458;9.998;2024-02-28T14:29:34;24.27;;;18.25;;
16634;SDS011;8431;52.458;9.998;2024-02-28T14:32:03;30.83;;;20.50;;
16634;SDS011;8431;52.458;9.998;2024-02-28T14:34:32;27.63;;;20.13;;
16634;SDS011;8431;52.458;9.998;2024-02-28T14:36:58;24.75;;;18.88;;
16634;SDS011;8431;52.458;9.998;2024-02-28T14:39:25;26.20;;;18.95;;
16634;SDS011;8431;52.458;9.998;2024-02-28T14:41:52;26.73;;;18.13;;
16634;SDS011;8431;52.458;9.998;2024-02-28T14:44:26;20.50;;;15.13;;
16634;SDS011;8431;52.458;9.998;2024-02-28T14:47:02;24.42;;;17.35;;
16634;SDS011;8431;52.458;9.998;2024-02-28T14:49:30;22.95;;;15.88;;